sensor_id;sensor_type;location;lat;lon;timestamp;P1;durP1;ratioP1;P2;durP2;ratioP2
25247;SDS011;13191;47.472;11.214;2023-07-29T00:00:44;8.68;;;1.10;;
25247;SDS011;13191;47.472;11.214;2023-07-29T00:03:09;3.15;;;1.00;;
25247;SDS011;13191;47.472;11.214;2023-07-29T00:05:36;1.77;;;0.90;;
25247;SDS011;13191;47.472;11.214;2023-07-29T00:08:02;1.55;;;0.85;;
25247;SDS011;13191;47.472;11.214;2023-07-29T00:10:28;4.00;;;1.00;;
25247;SDS011;13191;47.472;11.214;2023-07-29T00:12:54;2.22;;;0.80;;
25247;SDS011;13191;47.472;11.214;2023-07-29T00:15:19;1.55;;;0.93;;
25247;SDS011;13191;47.472;11.214;2023-07-29T00:17:45;1.60;;;0.80;;
25247;SDS011;13191;47.472;11.214;2023-07-29T00:20:11;1.83;;;0.90;;
25247;SDS011;13191;47.472;11.214;2023-07-29T00:22:36;2.28;;;1.27;;
25247;SDS011;13191;47.472;11.214;2023-07-29T00:25:02;2.17;;;0.90;;
25247;SDS011;13191;47.472;11.214;2023-07-29T00:27:27;1.90;;;0.90;;
25247;SDS011;13191;47.472;11.214;2023-07-29T00:29:53;2.88;;;0.90;;
25247;SDS011;13191;47.472;11.214;2023-07-29T00:32:18;1.40;;;0.68;;
25247;SDS011;13191;47.472;11.214;2023-07-29T00:34:44;2.45;;;1.25;;
25247;SDS011;13191;47.472;11.214;2023-07-29T00:37:09;1.75;;;0.77;;
25247;SDS011;13191;47.472;11.214;2023-07-29T00:39:35;4.57;;;0.77;;
25247;SDS011;13191;47.472;11.214;2023-07-29T00:42:02;2.35;;;1.00;;
25247;SDS011;13191;47.472;11.214;2023-07-29T00:44:28;2.63;;;1.10;;
25247;SDS011;13191;47.472;11.214;2023-07-29T00:46:53;1.25;;;0.80;;
25247;SDS011;13191;47.472;11.214;2023-07-29T00:49:20;2.00;;;0.80;;
25247;SDS011;13191;47.472;11.214;2023-07-29T00:51:46;2.30;;;0.90;;
25247;SDS011;13191;47.472;11.214;2023-07-29T00:54:12;3.22;;;1.00;;
25247;SDS011;13191;47.472;11.214;2023-07-29T00:56:38;2.45;;;1.20;;
25247;SDS011;13191;47.472;11.214;2023-07-29T00:59:04;2.05;;;1.08;;
25247;SDS011;13191;47.472;11.214;2023-07-29T01:01:30;3.05;;;1.10;;
25247;SDS011;13191;47.472;11.214;2023-07-29T01:03:57;2.53;;;1.05;;
25247;SDS011;13191;47.472;11.214;2023-07-29T01:09:03;3.58;;;1.17;;
25247;SDS011;13191;47.472;11.214;2023-07-29T01:14:34;2.92;;;1.33;;
25247;SDS011;13191;47.472;11.214;2023-07-29T01:17:07;3.50;;;0.93;;
25247;SDS011;13191;47.472;11.214;2023-07-29T01:22:14;3.25;;;1.10;;
25247;SDS011;13191;47.472;11.214;2023-07-29T01:24:42;2.47;;;1.38;;
25247;SDS011;13191;47.472;11.214;2023-07-29T01:27:07;2.40;;;1.13;;
25247;SDS011;13191;47.472;11.214;2023-07-29T01:29:33;1.63;;;0.88;;
25247;SDS011;13191;47.472;11.214;2023-07-29T01:32:01;2.22;;;1.17;;
25247;SDS011;13191;47.472;11.214;2023-07-29T01:34:39;2.75;;;1.23;;
25247;SDS011;13191;47.472;11.214;2023-07-29T01:37:14;2.22;;;1.00;;
25247;SDS011;13191;47.472;11.214;2023-07-29T01:39:46;2.58;;;1.00;;
25247;SDS011;13191;47.472;11.214;2023-07-29T01:42:14;4.18;;;0.82;;
25247;SDS011;13191;47.472;11.214;2023-07-29T01:44:40;2.13;;;1.02;;
25247;SDS011;13191;47.472;11.214;2023-07-29T01:47:07;2.17;;;0.80;;
25247;SDS011;13191;47.472;11.214;2023-07-29T01:49:33;1.88;;;0.80;;
25247;SDS011;13191;47.472;11.214;2023-07-29T01:51:58;2.00;;;1.00;;
25247;SDS011;13191;47.472;11.214;2023-07-29T01:54:24;6.47;;;1.17;;
25247;SDS011;13191;47.472;11.214;2023-07-29T01:56:50;1.75;;;0.70;;
25247;SDS011;13191;47.472;11.214;2023-07-29T01:59:16;2.58;;;1.15;;
25247;SDS011;13191;47.472;11.214;2023-07-29T02:01:42;2.17;;;1.00;;
25247;SDS011;13191;47.472;11.214;2023-07-29T02:04:07;2.42;;;0.80;;
25247;SDS011;13191;47.472;11.214;2023-07-29T02:06:33;4.40;;;0.63;;
25247;SDS011;13191;47.472;11.214;2023-07-29T02:08:59;1.60;;;0.73;;
25247;SDS011;13191;47.472;11.214;2023-07-29T02:11:24;2.20;;;0.93;;
25247;SDS011;13191;47.472;11.214;2023-07-29T02:13:53;3.13;;;1.50;;
25247;SDS011;13191;47.472;11.214;2023-07-29T02:16:19;5.00;;;1.10;;
25247;SDS011;13191;47.472;11.214;2023-07-29T02:18:47;1.65;;;0.88;;
25247;SDS011;13191;47.472;11.214;2023-07-29T02:21:14;2.17;;;1.05;;
25247;SDS011;13191;47.472;11.214;2023-07-29T02:23:40;3.13;;;1.00;;
25247;SDS011;13191;47.472;11.214;2023-07-29T02:26:05;4.97;;;1.23;;
25247;SDS011;13191;47.472;11.214;2023-07-29T02:28:31;1.80;;;0.95;;
25247;SDS011;13191;47.472;11.214;2023-07-29T02:31:16;1.83;;;0.90;;
25247;SDS011;13191;47.472;11.214;2023-07-29T02:33:44;1.67;;;0.75;;
25247;SDS011;13191;47.472;11.214;2023-07-29T02:36:11;3.00;;;0.90;;
25247;SDS011;13191;47.472;11.214;2023-07-29T02:38:38;2.35;;;1.15;;
25247;SDS011;13191;47.472;11.214;2023-07-29T02:41:04;2.28;;;1.17;;
25247;SDS011;13191;47.472;11.214;2023-07-29T02:43:30;2.17;;;0.88;;
25247;SDS011;13191;47.472;11.214;2023-07-29T02:45:55;3.38;;;1.17;;
25247;SDS011;13191;47.472;11.214;2023-07-29T02:48:21;5.47;;;1.25;;
25247;SDS011;13191;47.472;11.214;2023-07-29T02:50:46;2.22;;;0.90;;
25247;SDS011;13191;47.472;11.214;2023-07-29T02:53:12;3.45;;;1.13;;
25247;SDS011;13191;47.472;11.214;2023-07-29T02:55:41;2.42;;;1.10;;
25247;SDS011;13191;47.472;11.214;2023-07-29T02:58:07;2.53;;;0.90;;
25247;SDS011;13191;47.472;11.214;2023-07-29T03:00:32;3.17;;;0.98;;
25247;SDS011;13191;47.472;11.214;2023-07-29T03:02:58;2.47;;;1.10;;
25247;SDS011;13191;47.472;11.214;2023-07-29T03:05:24;5.35;;;1.30;;
25247;SDS011;13191;47.472;11.214;2023-07-29T03:07:52;2.30;;;0.90;;
25247;SDS011;13191;47.472;11.214;2023-07-29T03:10:18;2.78;;;1.13;;
25247;SDS011;13191;47.472;11.214;2023-07-29T03:12:44;4.03;;;0.85;;
25247;SDS011;13191;47.472;11.214;2023-07-29T03:15:09;4.75;;;0.90;;
25247;SDS011;13191;47.472;11.214;2023-07-29T03:17:35;2.97;;;1.30;;
25247;SDS011;13191;47.472;11.214;2023-07-29T03:20:00;2.47;;;1.52;;
25247;SDS011;13191;47.472;11.214;2023-07-29T03:22:26;2.33;;;1.20;;
25247;SDS011;13191;47.472;11.214;2023-07-29T03:24:52;3.90;;;1.40;;
25247;SDS011;13191;47.472;11.214;2023-07-29T03:27:17;4.20;;;1.35;;
25247;SDS011;13191;47.472;11.214;2023-07-29T03:29:43;2.30;;;1.10;;
25247;SDS011;13191;47.472;11.214;2023-07-29T03:32:09;2.83;;;1.00;;
25247;SDS011;13191;47.472;11.214;2023-07-29T03:34:34;6.13;;;1.48;;
25247;SDS011;13191;47.472;11.214;2023-07-29T03:37:00;1.42;;;0.70;;
25247;SDS011;13191;47.472;11.214;2023-07-29T03:39:26;2.25;;;1.00;;
25247;SDS011;13191;47.472;11.214;2023-07-29T03:41:52;2.03;;;0.90;;
25247;SDS011;13191;47.472;11.214;2023-07-29T03:44:17;3.20;;;0.90;;
25247;SDS011;13191;47.472;11.214;2023-07-29T03:46:43;2.25;;;1.15;;
25247;SDS011;13191;47.472;11.214;2023-07-29T03:49:09;3.33;;;1.23;;
25247;SDS011;13191;47.472;11.214;2023-07-29T03:51:35;2.55;;;1.02;;
25247;SDS011;13191;47.472;11.214;2023-07-29T03:54:01;2.03;;;0.90;;
25247;SDS011;13191;47.472;11.214;2023-07-29T03:56:26;2.63;;;0.98;;
25247;SDS011;13191;47.472;11.214;2023-07-29T03:58:52;1.92;;;1.02;;
25247;SDS011;13191;47.472;11.214;2023-07-29T04:01:18;8.50;;;1.35;;
25247;SDS011;13191;47.472;11.214;2023-07-29T04:03:47;2.33;;;1.05;;
25247;SDS011;13191;47.472;11.214;2023-07-29T04:06:12;2.10;;;0.98;;
25247;SDS011;13191;47.472;11.214;2023-07-29T04:08:38;1.95;;;1.05;;
25247;SDS011;13191;47.472;11.214;2023-07-29T04:11:04;2.60;;;1.20;;
25247;SDS011;13191;47.472;11.214;2023-07-29T04:13:29;3.10;;;1.10;;
25247;SDS011;13191;47.472;11.214;2023-07-29T04:15:55;3.00;;;1.00;;
25247;SDS011;13191;47.472;11.214;2023-07-29T04:18:20;0.90;;;0.60;;
25247;SDS011;13191;47.472;11.214;2023-07-29T04:20:46;2.00;;;0.90;;
25247;SDS011;13191;47.472;11.214;2023-07-29T04:23:12;2.63;;;1.25;;
25247;SDS011;13191;47.472;11.214;2023-07-29T04:25:37;1.92;;;0.77;;
25247;SDS011;13191;47.472;11.214;2023-07-29T04:28:03;6.82;;;1.23;;
25247;SDS011;13191;47.472;11.214;2023-07-29T04:30:30;2.90;;;0.85;;
25247;SDS011;13191;47.472;11.214;2023-07-29T04:32:55;2.40;;;1.00;;
25247;SDS011;13191;47.472;11.214;2023-07-29T04:35:21;5.30;;;1.10;;
25247;SDS011;13191;47.472;11.214;2023-07-29T04:37:46;2.10;;;0.93;;
25247;SDS011;13191;47.472;11.214;2023-07-29T04:40:13;2.85;;;0.73;;
25247;SDS011;13191;47.472;11.214;2023-07-29T04:42:39;3.67;;;1.50;;
25247;SDS011;13191;47.472;11.214;2023-07-29T04:45:05;1.63;;;0.73;;
25247;SDS011;13191;47.472;11.214;2023-07-29T04:47:30;2.40;;;1.00;;
25247;SDS011;13191;47.472;11.214;2023-07-29T04:49:56;2.28;;;1.10;;
25247;SDS011;13191;47.472;11.214;2023-07-29T04:52:21;2.13;;;1.00;;
25247;SDS011;13191;47.472;11.214;2023-07-29T04:54:47;2.35;;;1.20;;
25247;SDS011;13191;47.472;11.214;2023-07-29T04:57:13;4.28;;;0.98;;
25247;SDS011;13191;47.472;11.214;2023-07-29T04:59:38;3.38;;;1.15;;
25247;SDS011;13191;47.472;11.214;2023-07-29T05:02:04;1.67;;;0.90;;
25247;SDS011;13191;47.472;11.214;2023-07-29T05:04:30;2.75;;;1.00;;
25247;SDS011;13191;47.472;11.214;2023-07-29T05:06:55;7.57;;;1.00;;
25247;SDS011;13191;47.472;11.214;2023-07-29T05:09:21;1.80;;;0.80;;
25247;SDS011;13191;47.472;11.214;2023-07-29T05:11:46;2.33;;;0.98;;
25247;SDS011;13191;47.472;11.214;2023-07-29T05:14:16;4.32;;;1.15;;
25247;SDS011;13191;47.472;11.214;2023-07-29T05:16:42;2.42;;;0.80;;
25247;SDS011;13191;47.472;11.214;2023-07-29T05:19:09;1.55;;;0.75;;
25247;SDS011;13191;47.472;11.214;2023-07-29T05:21:34;2.65;;;1.38;;
25247;SDS011;13191;47.472;11.214;2023-07-29T05:24:00;2.22;;;1.10;;
25247;SDS011;13191;47.472;11.214;2023-07-29T05:26:25;2.17;;;1.08;;
25247;SDS011;13191;47.472;11.214;2023-07-29T05:28:51;2.30;;;1.05;;
25247;SDS011;13191;47.472;11.214;2023-07-29T05:31:17;2.00;;;0.82;;
25247;SDS011;13191;47.472;11.214;2023-07-29T05:33:42;2.00;;;0.60;;
25247;SDS011;13191;47.472;11.214;2023-07-29T05:36:08;2.10;;;0.90;;
25247;SDS011;13191;47.472;11.214;2023-07-29T05:38:34;2.30;;;1.20;;
25247;SDS011;13191;47.472;11.214;2023-07-29T05:40:59;1.58;;;0.85;;
25247;SDS011;13191;47.472;11.214;2023-07-29T05:43:25;2.15;;;1.00;;
25247;SDS011;13191;47.472;11.214;2023-07-29T05:45:51;2.17;;;1.10;;
25247;SDS011;13191;47.472;11.214;2023-07-29T05:48:17;2.85;;;1.08;;
25247;SDS011;13191;47.472;11.214;2023-07-29T05:50:43;2.95;;;1.10;;
25247;SDS011;13191;47.472;11.214;2023-07-29T05:53:08;1.48;;;0.82;;
25247;SDS011;13191;47.472;11.214;2023-07-29T05:55:34;1.63;;;0.93;;
25247;SDS011;13191;47.472;11.214;2023-07-29T05:58:00;2.88;;;0.98;;
25247;SDS011;13191;47.472;11.214;2023-07-29T06:00:25;2.35;;;1.00;;
25247;SDS011;13191;47.472;11.214;2023-07-29T06:02:51;2.78;;;1.27;;
25247;SDS011;13191;47.472;11.214;2023-07-29T06:05:17;2.15;;;0.93;;
25247;SDS011;13191;47.472;11.214;2023-07-29T06:07:42;3.65;;;1.13;;
25247;SDS011;13191;47.472;11.214;2023-07-29T06:10:10;3.25;;;1.23;;
25247;SDS011;13191;47.472;11.214;2023-07-29T06:12:38;2.78;;;1.00;;
25247;SDS011;13191;47.472;11.214;2023-07-29T06:15:04;2.28;;;1.17;;
25247;SDS011;13191;47.472;11.214;2023-07-29T06:17:31;5.78;;;1.13;;
25247;SDS011;13191;47.472;11.214;2023-07-29T06:19:56;3.42;;;0.90;;
25247;SDS011;13191;47.472;11.214;2023-07-29T06:22:22;4.47;;;1.30;;
25247;SDS011;13191;47.472;11.214;2023-07-29T06:24:47;2.40;;;1.10;;
25247;SDS011;13191;47.472;11.214;2023-07-29T06:27:13;3.22;;;1.00;;
25247;SDS011;13191;47.472;11.214;2023-07-29T06:29:38;4.28;;;0.90;;
25247;SDS011;13191;47.472;11.214;2023-07-29T06:32:04;5.55;;;1.20;;
25247;SDS011;13191;47.472;11.214;2023-07-29T06:34:30;3.75;;;1.45;;
25247;SDS011;13191;47.472;11.214;2023-07-29T06:36:56;2.40;;;1.13;;
25247;SDS011;13191;47.472;11.214;2023-07-29T06:39:22;2.03;;;0.90;;
25247;SDS011;13191;47.472;11.214;2023-07-29T06:41:47;3.03;;;1.00;;
25247;SDS011;13191;47.472;11.214;2023-07-29T06:44:13;2.53;;;1.02;;
25247;SDS011;13191;47.472;11.214;2023-07-29T06:46:38;2.33;;;0.90;;
25247;SDS011;13191;47.472;11.214;2023-07-29T06:49:05;2.47;;;1.13;;
25247;SDS011;13191;47.472;11.214;2023-07-29T06:51:30;1.55;;;0.90;;
25247;SDS011;13191;47.472;11.214;2023-07-29T06:53:59;5.43;;;1.23;;
25247;SDS011;13191;47.472;11.214;2023-07-29T06:56:25;2.28;;;1.02;;
25247;SDS011;13191;47.472;11.214;2023-07-29T06:58:51;5.28;;;1.17;;
25247;SDS011;13191;47.472;11.214;2023-07-29T07:01:16;2.42;;;0.98;;
25247;SDS011;13191;47.472;11.214;2023-07-29T07:03:42;3.13;;;1.05;;
25247;SDS011;13191;47.472;11.214;2023-07-29T07:06:07;2.25;;;1.05;;
25247;SDS011;13191;47.472;11.214;2023-07-29T07:08:33;2.65;;;1.20;;
25247;SDS011;13191;47.472;11.214;2023-07-29T07:10:59;3.85;;;1.20;;
25247;SDS011;13191;47.472;11.214;2023-07-29T07:13:24;6.22;;;2.60;;
25247;SDS011;13191;47.472;11.214;2023-07-29T07:15:50;5.22;;;1.10;;
25247;SDS011;13191;47.472;11.214;2023-07-29T07:18:15;2.63;;;1.10;;
25247;SDS011;13191;47.472;11.214;2023-07-29T07:20:41;6.75;;;1.35;;
25247;SDS011;13191;47.472;11.214;2023-07-29T07:23:06;2.80;;;0.98;;
25247;SDS011;13191;47.472;11.214;2023-07-29T07:25:36;3.50;;;1.17;;
25247;SDS011;13191;47.472;11.214;2023-07-29T07:28:01;6.18;;;1.00;;
25247;SDS011;13191;47.472;11.214;2023-07-29T07:30:27;2.13;;;1.23;;
25247;SDS011;13191;47.472;11.214;2023-07-29T07:32:53;4.18;;;1.00;;
25247;SDS011;13191;47.472;11.214;2023-07-29T07:35:19;1.80;;;0.90;;
25247;SDS011;13191;47.472;11.214;2023-07-29T07:37:45;3.60;;;1.48;;
25247;SDS011;13191;47.472;11.214;2023-07-29T07:40:11;3.75;;;1.15;;
25247;SDS011;13191;47.472;11.214;2023-07-29T07:42:36;2.28;;;1.00;;
25247;SDS011;13191;47.472;11.214;2023-07-29T07:45:02;2.83;;;1.20;;
25247;SDS011;13191;47.472;11.214;2023-07-29T07:47:28;3.30;;;1.33;;
25247;SDS011;13191;47.472;11.214;2023-07-29T07:49:53;2.22;;;1.17;;
25247;SDS011;13191;47.472;11.214;2023-07-29T07:52:19;2.65;;;1.10;;
25247;SDS011;13191;47.472;11.214;2023-07-29T07:54:44;5.95;;;1.42;;
25247;SDS011;13191;47.472;11.214;2023-07-29T07:57:10;2.00;;;1.05;;
25247;SDS011;13191;47.472;11.214;2023-07-29T07:59:35;2.00;;;1.15;;
25247;SDS011;13191;47.472;11.214;2023-07-29T08:02:01;3.20;;;1.50;;
25247;SDS011;13191;47.472;11.214;2023-07-29T08:04:27;2.10;;;0.95;;
25247;SDS011;13191;47.472;11.214;2023-07-29T08:06:52;3.00;;;1.23;;
25247;SDS011;13191;47.472;11.214;2023-07-29T08:09:18;2.67;;;1.08;;
25247;SDS011;13191;47.472;11.214;2023-07-29T08:11:43;2.30;;;1.10;;
25247;SDS011;13191;47.472;11.214;2023-07-29T08:14:09;2.53;;;1.05;;
25247;SDS011;13191;47.472;11.214;2023-07-29T08:16:34;2.33;;;1.27;;
25247;SDS011;13191;47.472;11.214;2023-07-29T08:19:00;2.42;;;0.90;;
25247;SDS011;13191;47.472;11.214;2023-07-29T08:21:26;2.75;;;1.27;;
25247;SDS011;13191;47.472;11.214;2023-07-29T08:23:52;2.60;;;1.08;;
25247;SDS011;13191;47.472;11.214;2023-07-29T08:26:17;2.33;;;1.17;;
25247;SDS011;13191;47.472;11.214;2023-07-29T08:28:43;2.40;;;1.05;;
25247;SDS011;13191;47.472;11.214;2023-07-29T08:31:09;3.72;;;1.15;;
25247;SDS011;13191;47.472;11.214;2023-07-29T08:33:34;2.22;;;0.93;;
25247;SDS011;13191;47.472;11.214;2023-07-29T08:36:00;2.55;;;1.08;;
25247;SDS011;13191;47.472;11.214;2023-07-29T08:38:26;5.32;;;1.55;;
25247;SDS011;13191;47.472;11.214;2023-07-29T08:43:35;2.63;;;1.13;;
25247;SDS011;13191;47.472;11.214;2023-07-29T08:46:08;2.55;;;1.30;;
25247;SDS011;13191;47.472;11.214;2023-07-29T08:48:41;2.30;;;1.00;;
25247;SDS011;13191;47.472;11.214;2023-07-29T08:51:10;2.88;;;1.20;;
25247;SDS011;13191;47.472;11.214;2023-07-29T08:53:37;3.13;;;1.13;;
25247;SDS011;13191;47.472;11.214;2023-07-29T08:56:03;1.58;;;0.95;;
25247;SDS011;13191;47.472;11.214;2023-07-29T08:58:30;2.92;;;1.10;;
25247;SDS011;13191;47.472;11.214;2023-07-29T09:00:56;2.03;;;0.90;;
25247;SDS011;13191;47.472;11.214;2023-07-29T09:03:22;3.28;;;1.20;;
25247;SDS011;13191;47.472;11.214;2023-07-29T09:05:48;2.45;;;1.02;;
25247;SDS011;13191;47.472;11.214;2023-07-29T09:08:14;4.07;;;1.00;;
25247;SDS011;13191;47.472;11.214;2023-07-29T09:10:40;2.08;;;1.00;;
25247;SDS011;13191;47.472;11.214;2023-07-29T09:13:05;2.13;;;1.17;;
25247;SDS011;13191;47.472;11.214;2023-07-29T09:15:32;2.50;;;0.90;;
25247;SDS011;13191;47.472;11.214;2023-07-29T09:17:59;2.50;;;1.27;;
25247;SDS011;13191;47.472;11.214;2023-07-29T09:20:40;2.35;;;1.17;;
25247;SDS011;13191;47.472;11.214;2023-07-29T09:23:09;2.50;;;1.10;;
25247;SDS011;13191;47.472;11.214;2023-07-29T09:25:35;1.95;;;0.98;;
25247;SDS011;13191;47.472;11.214;2023-07-29T09:28:07;1.90;;;1.10;;
25247;SDS011;13191;47.472;11.214;2023-07-29T09:30:34;3.13;;;1.45;;
25247;SDS011;13191;47.472;11.214;2023-07-29T09:33:00;2.55;;;1.38;;
25247;SDS011;13191;47.472;11.214;2023-07-29T09:35:27;3.35;;;1.50;;
25247;SDS011;13191;47.472;11.214;2023-07-29T09:37:53;3.42;;;1.88;;
25247;SDS011;13191;47.472;11.214;2023-07-29T09:40:19;7.63;;;1.45;;
25247;SDS011;13191;47.472;11.214;2023-07-29T09:42:48;2.60;;;1.10;;
25247;SDS011;13191;47.472;11.214;2023-07-29T09:45:22;1.60;;;0.82;;
25247;SDS011;13191;47.472;11.214;2023-07-29T09:47:49;2.35;;;1.10;;
25247;SDS011;13191;47.472;11.214;2023-07-29T09:50:15;2.97;;;1.30;;
25247;SDS011;13191;47.472;11.214;2023-07-29T09:52:41;3.30;;;1.30;;
25247;SDS011;13191;47.472;11.214;2023-07-29T09:55:09;9.57;;;2.13;;
25247;SDS011;13191;47.472;11.214;2023-07-29T09:57:40;2.40;;;1.30;;
25247;SDS011;13191;47.472;11.214;2023-07-29T10:00:10;4.22;;;1.15;;
25247;SDS011;13191;47.472;11.214;2023-07-29T10:02:40;3.42;;;1.42;;
25247;SDS011;13191;47.472;11.214;2023-07-29T10:05:07;9.00;;;1.52;;
25247;SDS011;13191;47.472;11.214;2023-07-29T10:07:37;2.55;;;1.20;;
25247;SDS011;13191;47.472;11.214;2023-07-29T10:10:04;3.33;;;1.63;;
25247;SDS011;13191;47.472;11.214;2023-07-29T10:12:31;3.00;;;1.48;;
25247;SDS011;13191;47.472;11.214;2023-07-29T10:15:04;2.33;;;1.20;;
25247;SDS011;13191;47.472;11.214;2023-07-29T10:17:33;4.85;;;2.33;;
25247;SDS011;13191;47.472;11.214;2023-07-29T10:20:03;2.67;;;1.13;;
25247;SDS011;13191;47.472;11.214;2023-07-29T10:22:35;3.30;;;1.58;;
25247;SDS011;13191;47.472;11.214;2023-07-29T10:25:21;3.03;;;1.30;;
25247;SDS011;13191;47.472;11.214;2023-07-29T10:28:02;2.35;;;1.10;;
25247;SDS011;13191;47.472;11.214;2023-07-29T10:30:31;3.10;;;1.63;;
25247;SDS011;13191;47.472;11.214;2023-07-29T10:33:06;5.60;;;1.30;;
25247;SDS011;13191;47.472;11.214;2023-07-29T10:35:32;4.80;;;1.35;;
25247;SDS011;13191;47.472;11.214;2023-07-29T10:37:59;3.92;;;1.60;;
25247;SDS011;13191;47.472;11.214;2023-07-29T10:40:26;2.08;;;1.20;;
25247;SDS011;13191;47.472;11.214;2023-07-29T10:43:11;2.70;;;1.02;;
25247;SDS011;13191;47.472;11.214;2023-07-29T10:45:38;3.15;;;1.40;;
25247;SDS011;13191;47.472;11.214;2023-07-29T10:53:52;2.85;;;1.60;;
25247;SDS011;13191;47.472;11.214;2023-07-29T10:56:29;3.65;;;1.55;;
25247;SDS011;13191;47.472;11.214;2023-07-29T11:01:40;2.55;;;1.33;;
25247;SDS011;13191;47.472;11.214;2023-07-29T11:15:20;2.75;;;1.27;;
25247;SDS011;13191;47.472;11.214;2023-07-29T11:17:56;2.30;;;1.25;;
25247;SDS011;13191;47.472;11.214;2023-07-29T11:20:30;3.05;;;1.23;;
25247;SDS011;13191;47.472;11.214;2023-07-29T11:22:57;3.50;;;1.25;;
25247;SDS011;13191;47.472;11.214;2023-07-29T11:25:25;3.70;;;1.55;;
25247;SDS011;13191;47.472;11.214;2023-07-29T11:27:52;2.20;;;1.10;;
25247;SDS011;13191;47.472;11.214;2023-07-29T11:30:19;1.60;;;1.00;;
25247;SDS011;13191;47.472;11.214;2023-07-29T11:32:46;2.97;;;1.33;;
25247;SDS011;13191;47.472;11.214;2023-07-29T11:35:15;2.35;;;1.02;;
25247;SDS011;13191;47.472;11.214;2023-07-29T11:37:43;3.92;;;1.20;;
25247;SDS011;13191;47.472;11.214;2023-07-29T11:40:13;1.90;;;1.10;;
25247;SDS011;13191;47.472;11.214;2023-07-29T11:42:51;5.03;;;1.70;;
25247;SDS011;13191;47.472;11.214;2023-07-29T11:45:18;3.08;;;1.50;;
25247;SDS011;13191;47.472;11.214;2023-07-29T11:47:44;2.42;;;1.38;;
25247;SDS011;13191;47.472;11.214;2023-07-29T11:50:11;2.80;;;1.30;;
25247;SDS011;13191;47.472;11.214;2023-07-29T11:52:41;3.03;;;1.38;;
25247;SDS011;13191;47.472;11.214;2023-07-29T11:55:08;4.07;;;1.30;;
25247;SDS011;13191;47.472;11.214;2023-07-29T11:57:35;2.55;;;1.48;;
25247;SDS011;13191;47.472;11.214;2023-07-29T12:00:06;2.45;;;1.10;;
25247;SDS011;13191;47.472;11.214;2023-07-29T12:02:36;3.28;;;1.35;;
25247;SDS011;13191;47.472;11.214;2023-07-29T12:05:03;2.83;;;1.17;;
25247;SDS011;13191;47.472;11.214;2023-07-29T12:07:30;5.38;;;1.60;;
25247;SDS011;13191;47.472;11.214;2023-07-29T12:09:56;2.35;;;1.23;;
25247;SDS011;13191;47.472;11.214;2023-07-29T12:12:22;3.50;;;1.73;;
25247;SDS011;13191;47.472;11.214;2023-07-29T12:14:48;3.45;;;1.88;;
25247;SDS011;13191;47.472;11.214;2023-07-29T12:17:14;4.18;;;1.90;;
25247;SDS011;13191;47.472;11.214;2023-07-29T12:19:40;2.65;;;1.48;;
25247;SDS011;13191;47.472;11.214;2023-07-29T12:22:07;4.25;;;1.40;;
25247;SDS011;13191;47.472;11.214;2023-07-29T12:24:38;4.72;;;1.40;;
25247;SDS011;13191;47.472;11.214;2023-07-29T12:27:06;4.00;;;1.55;;
25247;SDS011;13191;47.472;11.214;2023-07-29T12:32:05;2.97;;;1.60;;
25247;SDS011;13191;47.472;11.214;2023-07-29T12:34:31;3.25;;;1.88;;
25247;SDS011;13191;47.472;11.214;2023-07-29T12:36:58;2.50;;;1.60;;
25247;SDS011;13191;47.472;11.214;2023-07-29T12:39:25;4.35;;;2.00;;
25247;SDS011;13191;47.472;11.214;2023-07-29T12:41:53;3.53;;;1.60;;
25247;SDS011;13191;47.472;11.214;2023-07-29T12:44:25;2.58;;;1.58;;
25247;SDS011;13191;47.472;11.214;2023-07-29T12:46:54;3.90;;;1.90;;
25247;SDS011;13191;47.472;11.214;2023-07-29T12:49:20;3.38;;;1.55;;
25247;SDS011;13191;47.472;11.214;2023-07-29T12:51:45;3.92;;;1.85;;
25247;SDS011;13191;47.472;11.214;2023-07-29T12:54:11;3.65;;;1.90;;
25247;SDS011;13191;47.472;11.214;2023-07-29T12:56:37;4.47;;;1.88;;
25247;SDS011;13191;47.472;11.214;2023-07-29T12:59:05;4.72;;;1.52;;
25247;SDS011;13191;47.472;11.214;2023-07-29T13:01:31;4.07;;;1.88;;
25247;SDS011;13191;47.472;11.214;2023-07-29T13:03:57;3.33;;;1.90;;
25247;SDS011;13191;47.472;11.214;2023-07-29T13:06:23;4.90;;;2.05;;
25247;SDS011;13191;47.472;11.214;2023-07-29T13:08:49;2.30;;;1.40;;
25247;SDS011;13191;47.472;11.214;2023-07-29T13:11:15;3.30;;;1.70;;
25247;SDS011;13191;47.472;11.214;2023-07-29T13:13:41;2.83;;;1.60;;
25247;SDS011;13191;47.472;11.214;2023-07-29T13:16:07;3.25;;;1.65;;
25247;SDS011;13191;47.472;11.214;2023-07-29T13:18:33;4.22;;;1.98;;
25247;SDS011;13191;47.472;11.214;2023-07-29T13:20:59;3.20;;;1.50;;
25247;SDS011;13191;47.472;11.214;2023-07-29T13:23:25;3.35;;;1.70;;
25247;SDS011;13191;47.472;11.214;2023-07-29T13:25:51;3.10;;;1.60;;
25247;SDS011;13191;47.472;11.214;2023-07-29T13:28:17;3.47;;;2.08;;
25247;SDS011;13191;47.472;11.214;2023-07-29T13:30:44;5.70;;;2.05;;
25247;SDS011;13191;47.472;11.214;2023-07-29T13:33:09;3.80;;;1.92;;
25247;SDS011;13191;47.472;11.214;2023-07-29T13:35:35;4.35;;;1.85;;
25247;SDS011;13191;47.472;11.214;2023-07-29T13:38:01;2.97;;;1.90;;
25247;SDS011;13191;47.472;11.214;2023-07-29T13:40:27;6.10;;;2.17;;
25247;SDS011;13191;47.472;11.214;2023-07-29T13:42:56;3.60;;;1.77;;
25247;SDS011;13191;47.472;11.214;2023-07-29T13:45:22;4.97;;;2.28;;
25247;SDS011;13191;47.472;11.214;2023-07-29T13:47:48;3.50;;;1.90;;
25247;SDS011;13191;47.472;11.214;2023-07-29T13:50:15;6.47;;;2.45;;
25247;SDS011;13191;47.472;11.214;2023-07-29T13:52:41;4.38;;;2.03;;
25247;SDS011;13191;47.472;11.214;2023-07-29T13:55:06;3.42;;;1.80;;
25247;SDS011;13191;47.472;11.214;2023-07-29T13:57:32;4.70;;;1.98;;
25247;SDS011;13191;47.472;11.214;2023-07-29T13:59:58;10.23;;;2.08;;
25247;SDS011;13191;47.472;11.214;2023-07-29T14:02:24;3.08;;;1.77;;
25247;SDS011;13191;47.472;11.214;2023-07-29T14:04:51;4.15;;;1.98;;
25247;SDS011;13191;47.472;11.214;2023-07-29T14:07:17;6.10;;;2.35;;
25247;SDS011;13191;47.472;11.214;2023-07-29T14:09:42;5.55;;;2.30;;
25247;SDS011;13191;47.472;11.214;2023-07-29T14:12:08;3.75;;;2.20;;
25247;SDS011;13191;47.472;11.214;2023-07-29T14:14:37;5.18;;;2.10;;
25247;SDS011;13191;47.472;11.214;2023-07-29T14:17:03;4.60;;;1.80;;
25247;SDS011;13191;47.472;11.214;2023-07-29T14:19:29;6.25;;;2.10;;
25247;SDS011;13191;47.472;11.214;2023-07-29T14:21:55;4.45;;;2.60;;
25247;SDS011;13191;47.472;11.214;2023-07-29T14:24:20;4.60;;;1.90;;
25247;SDS011;13191;47.472;11.214;2023-07-29T14:26:47;4.38;;;1.85;;
25247;SDS011;13191;47.472;11.214;2023-07-29T14:29:13;7.38;;;2.35;;
25247;SDS011;13191;47.472;11.214;2023-07-29T14:31:41;4.10;;;1.98;;
25247;SDS011;13191;47.472;11.214;2023-07-29T14:34:06;3.60;;;2.00;;
25247;SDS011;13191;47.472;11.214;2023-07-29T14:36:32;3.58;;;1.75;;
25247;SDS011;13191;47.472;11.214;2023-07-29T14:38:57;3.35;;;1.85;;
25247;SDS011;13191;47.472;11.214;2023-07-29T14:41:23;3.50;;;1.90;;
25247;SDS011;13191;47.472;11.214;2023-07-29T14:43:49;4.13;;;2.00;;
25247;SDS011;13191;47.472;11.214;2023-07-29T14:46:14;3.22;;;1.52;;
25247;SDS011;13191;47.472;11.214;2023-07-29T14:48:40;6.00;;;2.10;;
25247;SDS011;13191;47.472;11.214;2023-07-29T14:51:05;3.95;;;2.10;;
25247;SDS011;13191;47.472;11.214;2023-07-29T14:53:32;5.70;;;1.67;;
25247;SDS011;13191;47.472;11.214;2023-07-29T14:55:57;3.17;;;1.65;;
25247;SDS011;13191;47.472;11.214;2023-07-29T14:58:23;5.50;;;1.83;;
25247;SDS011;13191;47.472;11.214;2023-07-29T15:00:50;1.90;;;1.10;;
25247;SDS011;13191;47.472;11.214;2023-07-29T15:03:16;2.17;;;1.02;;